sensor_id;sensor_type;location;lat;lon;timestamp;P1;durP1;ratioP1;P2;durP2;ratioP2
67986;SDS011;54767;53.800;15.956;2023-05-10T09:48:46;4.90;;;3.50;;
67986;SDS011;54767;53.800;15.956;2023-05-10T09:51:20;5.40;;;3.30;;
67986;SDS011;54767;53.800;15.956;2023-05-10T09:54:24;9.00;;;3.50;;
67986;SDS011;54767;53.800;15.956;2023-05-10T09:56:45;4.40;;;3.20;;
67986;SDS011;54767;53.800;15.956;2023-05-10T09:59:13;4.70;;;3.10;;
67986;SDS011;54767;53.800;15.956;2023-05-10T10:01:41;19.90;;;3.80;;
67986;SDS011;54767;53.800;15.956;2023-05-10T10:04:17;13.00;;;3.40;;
67986;SDS011;54767;53.800;15.956;2023-05-10T10:06:46;8.10;;;3.40;;
67986;SDS011;54767;53.800;15.956;2023-05-10T10:09:14;4.60;;;3.00;;
67986;SDS011;54767;53.800;15.956;2023-05-10T10:11:44;9.90;;;3.10;;
67986;SDS011;54767;53.800;15.956;2023-05-10T10:14:33;13.30;;;3.20;;
67986;SDS011;54767;53.800;15.956;2023-05-10T10:17:02;13.70;;;2.80;;
67986;SDS011;54767;53.800;15.956;2023-05-10T10:19:36;13.20;;;3.30;;
67986;SDS011;54767;53.800;15.956;2023-05-10T10:24:36;6.00;;;3.10;;
67986;SDS011;54767;53.800;15.956;2023-05-10T10:27:28;7.10;;;3.30;;
67986;SDS011;54767;53.800;15.956;2023-05-10T10:33:19;11.00;;;3.50;;
67986;SDS011;54767;53.800;15.956;2023-05-10T10:36:08;6.60;;;2.90;;
67986;SDS011;54767;53.800;15.956;2023-05-10T10:41:29;7.70;;;3.20;;
67986;SDS011;54767;53.800;15.956;2023-05-10T10:47:22;7.80;;;5.40;;
67986;SDS011;54767;53.800;15.956;2023-05-10T10:53:11;8.80;;;3.90;;
67986;SDS011;54767;53.800;15.956;2023-05-10T10:55:47;5.70;;;4.10;;
67986;SDS011;54767;53.800;15.956;2023-05-10T10:58:29;5.90;;;3.50;;
67986;SDS011;54767;53.800;15.956;2023-05-10T11:01:14;5.10;;;3.20;;
67986;SDS011;54767;53.800;15.956;2023-05-10T11:06:31;5.70;;;3.20;;
67986;SDS011;54767;53.800;15.956;2023-05-10T11:09:08;8.60;;;3.30;;
67986;SDS011;54767;53.800;15.956;2023-05-10T11:14:20;4.30;;;3.50;;
67986;SDS011;54767;53.800;15.956;2023-05-10T11:16:51;7.60;;;3.20;;
67986;SDS011;54767;53.800;15.956;2023-05-10T11:19:23;4.40;;;2.90;;
67986;SDS011;54767;53.800;15.956;2023-05-10T11:24:34;4.50;;;3.10;;
67986;SDS011;54767;53.800;15.956;2023-05-10T11:27:05;13.40;;;3.80;;
67986;SDS011;54767;53.800;15.956;2023-05-10T11:29:35;11.90;;;3.80;;
67986;SDS011;54767;53.800;15.956;2023-05-10T11:32:06;5.30;;;3.20;;
67986;SDS011;54767;53.800;15.956;2023-05-10T11:35:20;6.40;;;3.10;;
67986;SDS011;54767;53.800;15.956;2023-05-10T11:38:10;4.80;;;3.00;;
67986;SDS011;54767;53.800;15.956;2023-05-10T11:41:10;6.10;;;2.90;;
67986;SDS011;54767;53.800;15.956;2023-05-10T11:43:41;6.70;;;3.50;;
67986;SDS011;54767;53.800;15.956;2023-05-10T11:46:24;5.30;;;3.60;;
67986;SDS011;54767;53.800;15.956;2023-05-10T11:48:59;4.80;;;3.20;;
67986;SDS011;54767;53.800;15.956;2023-05-10T11:51:32;4.70;;;3.30;;
67986;SDS011;54767;53.800;15.956;2023-05-10T11:54:08;6.40;;;3.20;;
67986;SDS011;54767;53.800;15.956;2023-05-10T11:56:39;5.90;;;3.60;;
67986;SDS011;54767;53.800;15.956;2023-05-10T11:59:08;6.50;;;3.40;;
67986;SDS011;54767;53.800;15.956;2023-05-10T12:01:37;6.70;;;3.90;;
67986;SDS011;54767;53.800;15.956;2023-05-10T12:04:05;7.10;;;3.30;;
67986;SDS011;54767;53.800;15.956;2023-05-10T12:06:36;7.60;;;3.20;;
67986;SDS011;54767;53.800;15.956;2023-05-10T12:09:08;8.40;;;3.70;;
67986;SDS011;54767;53.800;15.956;2023-05-10T12:11:38;5.70;;;4.20;;
67986;SDS011;54767;53.800;15.956;2023-05-10T12:14:11;8.70;;;3.90;;
67986;SDS011;54767;53.800;15.956;2023-05-10T12:16:40;9.10;;;3.80;;
67986;SDS011;54767;53.800;15.956;2023-05-10T12:19:09;5.00;;;3.00;;
67986;SDS011;54767;53.800;15.956;2023-05-10T12:21:38;4.40;;;3.10;;
67986;SDS011;54767;53.800;15.956;2023-05-10T12:24:06;5.10;;;3.20;;
67986;SDS011;54767;53.800;15.956;2023-05-10T12:26:35;7.40;;;3.40;;
67986;SDS011;54767;53.800;15.956;2023-05-10T12:29:18;4.70;;;3.20;;
67986;SDS011;54767;53.800;15.956;2023-05-10T12:31:57;7.70;;;3.80;;
67986;SDS011;54767;53.800;15.956;2023-05-10T12:34:29;6.30;;;3.10;;
67986;SDS011;54767;53.800;15.956;2023-05-10T12:37:01;6.20;;;2.90;;
67986;SDS011;54767;53.800;15.956;2023-05-10T12:39:41;3.80;;;3.10;;
67986;SDS011;54767;53.800;15.956;2023-05-10T12:42:11;5.60;;;3.30;;
67986;SDS011;54767;53.800;15.956;2023-05-10T12:44:58;4.40;;;3.00;;
67986;SDS011;54767;53.800;15.956;2023-05-10T12:49:56;4.90;;;3.10;;
67986;SDS011;54767;53.800;15.956;2023-05-10T12:52:25;5.20;;;3.10;;
67986;SDS011;54767;53.800;15.956;2023-05-10T12:54:54;8.40;;;3.40;;
67986;SDS011;54767;53.800;15.956;2023-05-10T12:57:23;11.40;;;3.30;;
67986;SDS011;54767;53.800;15.956;2023-05-10T12:59:51;4.80;;;3.20;;
67986;SDS011;54767;53.800;15.956;2023-05-10T13:02:20;17.80;;;4.10;;
67986;SDS011;54767;53.800;15.956;2023-05-10T13:04:49;6.60;;;2.80;;
67986;SDS011;54767;53.800;15.956;2023-05-10T13:07:18;10.10;;;3.30;;
67986;SDS011;54767;53.800;15.956;2023-05-10T13:09:47;4.70;;;3.40;;
67986;SDS011;54767;53.800;15.956;2023-05-10T13:12:15;7.50;;;3.60;;
67986;SDS011;54767;53.800;15.956;2023-05-10T13:14:43;11.40;;;3.50;;
67986;SDS011;54767;53.800;15.956;2023-05-10T13:17:12;10.00;;;3.30;;
67986;SDS011;54767;53.800;15.956;2023-05-10T13:19:40;3.70;;;3.10;;
67986;SDS011;54767;53.800;15.956;2023-05-10T13:22:08;8.30;;;2.90;;
67986;SDS011;54767;53.800;15.956;2023-05-10T13:24:37;6.70;;;3.30;;
67986;SDS011;54767;53.800;15.956;2023-05-10T13:27:05;4.90;;;3.10;;
67986;SDS011;54767;53.800;15.956;2023-05-10T13:29:33;13.20;;;3.10;;
67986;SDS011;54767;53.800;15.956;2023-05-10T13:32:01;4.50;;;3.10;;
67986;SDS011;54767;53.800;15.956;2023-05-10T13:34:30;7.60;;;3.10;;
67986;SDS011;54767;53.800;15.956;2023-05-10T13:36:58;5.50;;;2.90;;
67986;SDS011;54767;53.800;15.956;2023-05-10T13:39:26;7.10;;;3.40;;
67986;SDS011;54767;53.800;15.956;2023-05-10T13:41:55;5.20;;;3.20;;
67986;SDS011;54767;53.800;15.956;2023-05-10T13:44:23;5.20;;;3.30;;
67986;SDS011;54767;53.800;15.956;2023-05-10T13:46:51;4.80;;;3.20;;
67986;SDS011;54767;53.800;15.956;2023-05-10T13:49:20;9.80;;;3.20;;
67986;SDS011;54767;53.800;15.956;2023-05-10T13:54:18;5.60;;;3.20;;
67986;SDS011;54767;53.800;15.956;2023-05-10T13:56:47;4.90;;;3.20;;
67986;SDS011;54767;53.800;15.956;2023-05-10T13:59:16;5.30;;;3.10;;
67986;SDS011;54767;53.800;15.956;2023-05-10T14:01:45;4.30;;;2.60;;
67986;SDS011;54767;53.800;15.956;2023-05-10T14:04:13;7.30;;;3.30;;
67986;SDS011;54767;53.800;15.956;2023-05-10T14:06:42;6.50;;;3.10;;
67986;SDS011;54767;53.800;15.956;2023-05-10T14:09:10;7.30;;;4.80;;
67986;SDS011;54767;53.800;15.956;2023-05-10T14:11:38;5.40;;;4.40;;
67986;SDS011;54767;53.800;15.956;2023-05-10T14:14:11;5.10;;;3.50;;
67986;SDS011;54767;53.800;15.956;2023-05-10T14:16:44;8.10;;;3.80;;
67986;SDS011;54767;53.800;15.956;2023-05-10T14:19:12;7.70;;;4.90;;
67986;SDS011;54767;53.800;15.956;2023-05-10T14:21:41;9.50;;;6.50;;
67986;SDS011;54767;53.800;15.956;2023-05-10T14:24:09;12.50;;;11.00;;
67986;SDS011;54767;53.800;15.956;2023-05-10T14:26:38;20.00;;;14.90;;
67986;SDS011;54767;53.800;15.956;2023-05-10T14:29:06;6.40;;;4.80;;
67986;SDS011;54767;53.800;15.956;2023-05-10T14:31:37;7.10;;;6.50;;
67986;SDS011;54767;53.800;15.956;2023-05-10T14:34:05;7.30;;;4.70;;
67986;SDS011;54767;53.800;15.956;2023-05-10T14:36:34;7.30;;;4.50;;
67986;SDS011;54767;53.800;15.956;2023-05-10T14:39:02;3.70;;;3.40;;
67986;SDS011;54767;53.800;15.956;2023-05-10T14:41:31;6.00;;;3.90;;
67986;SDS011;54767;53.800;15.956;2023-05-10T14:44:00;3.80;;;3.50;;
67986;SDS011;54767;53.800;15.956;2023-05-10T14:46:31;5.20;;;3.40;;
67986;SDS011;54767;53.800;15.956;2023-05-10T14:48:59;6.60;;;3.70;;
67986;SDS011;54767;53.800;15.956;2023-05-10T14:51:27;4.30;;;3.20;;
67986;SDS011;54767;53.800;15.956;2023-05-10T14:53:56;4.00;;;3.70;;
67986;SDS011;54767;53.800;15.956;2023-05-10T14:56:24;7.00;;;3.60;;
67986;SDS011;54767;53.800;15.956;2023-05-10T14:58:53;8.10;;;3.50;;
67986;SDS011;54767;53.800;15.956;2023-05-10T15:01:23;6.10;;;3.40;;
67986;SDS011;54767;53.800;15.956;2023-05-10T15:03:53;6.40;;;3.40;;
67986;SDS011;54767;53.800;15.956;2023-05-10T15:06:23;9.80;;;4.70;;
67986;SDS011;54767;53.800;15.956;2023-05-10T15:08:58;5.80;;;3.90;;
67986;SDS011;54767;53.800;15.956;2023-05-10T15:11:26;8.20;;;4.50;;
67986;SDS011;54767;53.800;15.956;2023-05-10T15:13:55;10.00;;;4.70;;
67986;SDS011;54767;53.800;15.956;2023-05-10T15:16:23;5.10;;;4.10;;
67986;SDS011;54767;53.800;15.956;2023-05-10T15:18:52;4.30;;;3.50;;
67986;SDS011;54767;53.800;15.956;2023-05-10T15:21:20;8.00;;;3.40;;
67986;SDS011;54767;53.800;15.956;2023-05-10T15:23:49;3.60;;;3.30;;
67986;SDS011;54767;53.800;15.956;2023-05-10T15:26:19;8.50;;;3.90;;
67986;SDS011;54767;53.800;15.956;2023-05-10T15:29:08;4.40;;;3.40;;
67986;SDS011;54767;53.800;15.956;2023-05-10T15:32:22;6.30;;;3.50;;
67986;SDS011;54767;53.800;15.956;2023-05-10T15:35:11;6.40;;;4.20;;
67986;SDS011;54767;53.800;15.956;2023-05-10T15:37:59;8.60;;;4.60;;
67986;SDS011;54767;53.800;15.956;2023-05-10T15:40:33;7.80;;;4.80;;
67986;SDS011;54767;53.800;15.956;2023-05-10T15:43:02;7.50;;;4.90;;
67986;SDS011;54767;53.800;15.956;2023-05-10T15:45:30;8.40;;;5.50;;
67986;SDS011;54767;53.800;15.956;2023-05-10T15:48:00;10.10;;;5.80;;
67986;SDS011;54767;53.800;15.956;2023-05-10T15:50:28;7.30;;;4.10;;
67986;SDS011;54767;53.800;15.956;2023-05-10T15:52:57;3.70;;;3.40;;
67986;SDS011;54767;53.800;15.956;2023-05-10T15:55:26;5.10;;;3.60;;
67986;SDS011;54767;53.800;15.956;2023-05-10T15:57:54;10.40;;;6.10;;
67986;SDS011;54767;53.800;15.956;2023-05-10T16:00:24;9.20;;;5.30;;
67986;SDS011;54767;53.800;15.956;2023-05-10T16:02:59;10.40;;;5.10;;
67986;SDS011;54767;53.800;15.956;2023-05-10T16:05:43;8.00;;;5.30;;
67986;SDS011;54767;53.800;15.956;2023-05-10T16:08:12;7.70;;;4.80;;
67986;SDS011;54767;53.800;15.956;2023-05-10T16:10:41;6.30;;;4.50;;
67986;SDS011;54767;53.800;15.956;2023-05-10T16:13:10;6.80;;;4.50;;
67986;SDS011;54767;53.800;15.956;2023-05-10T16:15:42;4.80;;;3.70;;
67986;SDS011;54767;53.800;15.956;2023-05-10T16:18:10;8.00;;;4.40;;
67986;SDS011;54767;53.800;15.956;2023-05-10T16:20:42;8.40;;;5.10;;
67986;SDS011;54767;53.800;15.956;2023-05-10T16:23:11;9.60;;;5.20;;
67986;SDS011;54767;53.800;15.956;2023-05-10T16:25:46;10.40;;;4.90;;
67986;SDS011;54767;53.800;15.956;2023-05-10T16:28:14;10.40;;;5.10;;
67986;SDS011;54767;53.800;15.956;2023-05-10T16:30:43;6.10;;;4.60;;
67986;SDS011;54767;53.800;15.956;2023-05-10T16:33:12;8.60;;;5.00;;
67986;SDS011;54767;53.800;15.956;2023-05-10T16:38:09;7.80;;;4.40;;
67986;SDS011;54767;53.800;15.956;2023-05-10T16:40:38;11.90;;;5.70;;
67986;SDS011;54767;53.800;15.956;2023-05-10T16:43:06;9.50;;;6.00;;
67986;SDS011;54767;53.800;15.956;2023-05-10T16:45:43;8.10;;;5.00;;
67986;SDS011;54767;53.800;15.956;2023-05-10T16:48:11;16.70;;;8.90;;
67986;SDS011;54767;53.800;15.956;2023-05-10T16:53:31;10.70;;;5.70;;
67986;SDS011;54767;53.800;15.956;2023-05-10T16:56:04;5.30;;;3.90;;
67986;SDS011;54767;53.800;15.956;2023-05-10T16:58:34;9.10;;;5.70;;
67986;SDS011;54767;53.800;15.956;2023-05-10T17:01:03;7.70;;;5.20;;
67986;SDS011;54767;53.800;15.956;2023-05-10T17:03:32;11.10;;;6.20;;
67986;SDS011;54767;53.800;15.956;2023-05-10T17:06:01;7.40;;;4.60;;
67986;SDS011;54767;53.800;15.956;2023-05-10T17:08:29;5.20;;;4.50;;
67986;SDS011;54767;53.800;15.956;2023-05-10T17:11:01;7.00;;;5.30;;
67986;SDS011;54767;53.800;15.956;2023-05-10T17:13:31;5.60;;;4.50;;
67986;SDS011;54767;53.800;15.956;2023-05-10T17:16:00;6.90;;;4.70;;
67986;SDS011;54767;53.800;15.956;2023-05-10T17:18:32;10.50;;;6.90;;
67986;SDS011;54767;53.800;15.956;2023-05-10T17:21:01;8.40;;;6.00;;
67986;SDS011;54767;53.800;15.956;2023-05-10T17:23:30;9.90;;;7.00;;
67986;SDS011;54767;53.800;15.956;2023-05-10T17:25:58;11.20;;;6.90;;
67986;SDS011;54767;53.800;15.956;2023-05-10T17:28:28;18.50;;;10.20;;
67986;SDS011;54767;53.800;15.956;2023-05-10T17:30:57;9.70;;;6.30;;
67986;SDS011;54767;53.800;15.956;2023-05-10T17:33:26;9.50;;;5.80;;
67986;SDS011;54767;53.800;15.956;2023-05-10T17:35:54;13.60;;;6.30;;
67986;SDS011;54767;53.800;15.956;2023-05-10T17:38:23;10.00;;;6.00;;
67986;SDS011;54767;53.800;15.956;2023-05-10T17:40:52;9.50;;;5.40;;
67986;SDS011;54767;53.800;15.956;2023-05-10T17:43:21;8.50;;;5.00;;
67986;SDS011;54767;53.800;15.956;2023-05-10T17:45:50;19.90;;;5.70;;
67986;SDS011;54767;53.800;15.956;2023-05-10T17:48:19;17.00;;;5.00;;
67986;SDS011;54767;53.800;15.956;2023-05-10T17:50:51;8.40;;;4.80;;
67986;SDS011;54767;53.800;15.956;2023-05-10T17:53:29;10.20;;;5.10;;
67986;SDS011;54767;53.800;15.956;2023-05-10T17:56:00;6.20;;;4.40;;
67986;SDS011;54767;53.800;15.956;2023-05-10T17:58:29;6.60;;;4.70;;
67986;SDS011;54767;53.800;15.956;2023-05-10T18:00:58;8.20;;;4.80;;
67986;SDS011;54767;53.800;15.956;2023-05-10T18:03:26;7.90;;;4.80;;
67986;SDS011;54767;53.800;15.956;2023-05-10T18:05:55;23.30;;;17.60;;
67986;SDS011;54767;53.800;15.956;2023-05-10T18:08:24;26.50;;;20.20;;
67986;SDS011;54767;53.800;15.956;2023-05-10T18:10:54;14.40;;;10.10;;
67986;SDS011;54767;53.800;15.956;2023-05-10T18:13:23;8.80;;;7.40;;
67986;SDS011;54767;53.800;15.956;2023-05-10T18:15:52;10.40;;;8.20;;
67986;SDS011;54767;53.800;15.956;2023-05-10T18:18:21;8.10;;;6.70;;
67986;SDS011;54767;53.800;15.956;2023-05-10T18:20:50;9.10;;;6.70;;
67986;SDS011;54767;53.800;15.956;2023-05-10T18:23:23;8.50;;;5.50;;
67986;SDS011;54767;53.800;15.956;2023-05-10T18:25:52;7.50;;;5.40;;
67986;SDS011;54767;53.800;15.956;2023-05-10T18:28:20;8.10;;;5.90;;
67986;SDS011;54767;53.800;15.956;2023-05-10T18:30:49;10.00;;;6.00;;
67986;SDS011;54767;53.800;15.956;2023-05-10T18:33:18;11.60;;;7.40;;
67986;SDS011;54767;53.800;15.956;2023-05-10T18:35:46;16.80;;;9.20;;
67986;SDS011;54767;53.800;15.956;2023-05-10T18:38:15;18.30;;;11.10;;
67986;SDS011;54767;53.800;15.956;2023-05-10T18:40:44;22.00;;;12.10;;
67986;SDS011;54767;53.800;15.956;2023-05-10T18:43:12;18.50;;;11.60;;
67986;SDS011;54767;53.800;15.956;2023-05-10T18:45:41;12.60;;;7.70;;
67986;SDS011;54767;53.800;15.956;2023-05-10T18:48:12;11.80;;;7.10;;
67986;SDS011;54767;53.800;15.956;2023-05-10T18:50:40;9.50;;;5.40;;
67986;SDS011;54767;53.800;15.956;2023-05-10T18:53:09;5.30;;;4.40;;
67986;SDS011;54767;53.800;15.956;2023-05-10T18:55:38;7.60;;;4.40;;
67986;SDS011;54767;53.800;15.956;2023-05-10T18:58:07;5.20;;;4.10;;
67986;SDS011;54767;53.800;15.956;2023-05-10T19:00:36;6.90;;;4.30;;
67986;SDS011;54767;53.800;15.956;2023-05-10T19:03:04;6.10;;;4.80;;
67986;SDS011;54767;53.800;15.956;2023-05-10T19:05:34;11.30;;;5.90;;
67986;SDS011;54767;53.800;15.956;2023-05-10T19:08:02;10.20;;;6.50;;
67986;SDS011;54767;53.800;15.956;2023-05-10T19:10:31;13.20;;;9.20;;
67986;SDS011;54767;53.800;15.956;2023-05-10T19:13:00;12.60;;;8.20;;
67986;SDS011;54767;53.800;15.956;2023-05-10T19:15:28;9.70;;;6.70;;
67986;SDS011;54767;53.800;15.956;2023-05-10T19:17:56;10.40;;;5.80;;
67986;SDS011;54767;53.800;15.956;2023-05-10T19:20:25;8.40;;;5.50;;
67986;SDS011;54767;53.800;15.956;2023-05-10T19:22:54;7.30;;;4.50;;
67986;SDS011;54767;53.800;15.956;2023-05-10T19:25:39;7.90;;;4.50;;
67986;SDS011;54767;53.800;15.956;2023-05-10T19:28:09;6.00;;;4.20;;
67986;SDS011;54767;53.800;15.956;2023-05-10T19:30:39;9.60;;;4.40;;
67986;SDS011;54767;53.800;15.956;2023-05-10T19:33:07;6.50;;;4.20;;
67986;SDS011;54767;53.800;15.956;2023-05-10T19:38:05;8.00;;;5.10;;
67986;SDS011;54767;53.800;15.956;2023-05-10T19:40:39;8.90;;;5.40;;
67986;SDS011;54767;53.800;15.956;2023-05-10T19:43:08;8.10;;;5.60;;
67986;SDS011;54767;53.800;15.956;2023-05-10T19:45:36;9.20;;;5.20;;
67986;SDS011;54767;53.800;15.956;2023-05-10T19:48:09;7.80;;;4.40;;
67986;SDS011;54767;53.800;15.956;2023-05-10T19:50:38;5.60;;;4.60;;
67986;SDS011;54767;53.800;15.956;2023-05-10T19:53:07;5.50;;;4.10;;
67986;SDS011;54767;53.800;15.956;2023-05-10T19:55:42;5.60;;;4.50;;
67986;SDS011;54767;53.800;15.956;2023-05-10T19:58:17;5.60;;;4.30;;
67986;SDS011;54767;53.800;15.956;2023-05-10T20:01:07;6.60;;;4.30;;
67986;SDS011;54767;53.800;15.956;2023-05-10T20:03:36;5.80;;;4.10;;
67986;SDS011;54767;53.800;15.956;2023-05-10T20:06:05;7.80;;;4.80;;
67986;SDS011;54767;53.800;15.956;2023-05-10T20:08:43;7.40;;;5.30;;
67986;SDS011;54767;53.800;15.956;2023-05-10T20:11:12;10.50;;;5.60;;
67986;SDS011;54767;53.800;15.956;2023-05-10T20:13:41;10.30;;;6.70;;
67986;SDS011;54767;53.800;15.956;2023-05-10T20:16:12;10.90;;;7.50;;
67986;SDS011;54767;53.800;15.956;2023-05-10T20:19:00;14.40;;;7.20;;
67986;SDS011;54767;53.800;15.956;2023-05-10T20:21:41;8.70;;;5.80;;
67986;SDS011;54767;53.800;15.956;2023-05-10T20:24:11;8.90;;;5.60;;
67986;SDS011;54767;53.800;15.956;2023-05-10T20:26:40;7.30;;;5.20;;
67986;SDS011;54767;53.800;15.956;2023-05-10T20:29:12;10.00;;;5.40;;
67986;SDS011;54767;53.800;15.956;2023-05-10T20:31:43;9.70;;;5.40;;
67986;SDS011;54767;53.800;15.956;2023-05-10T20:34:14;7.80;;;4.70;;
67986;SDS011;54767;53.800;15.956;2023-05-10T20:36:42;6.80;;;4.40;;
67986;SDS011;54767;53.800;15.956;2023-05-10T20:39:11;7.40;;;4.50;;
67986;SDS011;54767;53.800;15.956;2023-05-10T20:41:40;7.40;;;4.60;;
67986;SDS011;54767;53.800;15.956;2023-05-10T20:44:09;7.50;;;4.80;;
67986;SDS011;54767;53.800;15.956;2023-05-10T20:46:37;9.80;;;4.80;;
67986;SDS011;54767;53.800;15.956;2023-05-10T20:49:18;6.40;;;4.50;;
67986;SDS011;54767;53.800;15.956;2023-05-10T20:51:47;10.30;;;5.30;;
67986;SDS011;54767;53.800;15.956;2023-05-10T20:54:20;10.70;;;5.60;;
67986;SDS011;54767;53.800;15.956;2023-05-10T20:56:50;11.20;;;5.20;;
67986;SDS011;54767;53.800;15.956;2023-05-10T20:59:19;7.90;;;5.80;;
67986;SDS011;54767;53.800;15.956;2023-05-10T21:01:58;7.50;;;4.80;;
67986;SDS011;54767;53.800;15.956;2023-05-10T21:04:27;6.70;;;4.40;;
67986;SDS011;54767;53.800;15.956;2023-05-10T21:06:56;6.80;;;4.70;;
67986;SDS011;54767;53.800;15.956;2023-05-10T21:09:26;7.70;;;4.50;;
67986;SDS011;54767;53.800;15.956;2023-05-10T21:11:54;5.60;;;4.10;;
67986;SDS011;54767;53.800;15.956;2023-05-10T21:14:28;6.30;;;4.00;;
67986;SDS011;54767;53.800;15.956;2023-05-10T21:16:57;6.70;;;4.30;;
67986;SDS011;54767;53.800;15.956;2023-05-10T21:19:25;6.80;;;4.40;;
67986;SDS011;54767;53.800;15.956;2023-05-10T21:21:54;7.60;;;4.40;;
67986;SDS011;54767;53.800;15.956;2023-05-10T21:24:25;6.20;;;4.10;;
67986;SDS011;54767;53.800;15.956;2023-05-10T21:26:56;7.00;;;4.20;;
67986;SDS011;54767;53.800;15.956;2023-05-10T21:29:25;7.60;;;4.70;;
67986;SDS011;54767;53.800;15.956;2023-05-10T21:31:54;9.90;;;4.20;;
67986;SDS011;54767;53.800;15.956;2023-05-10T21:34:22;10.40;;;4.70;;
67986;SDS011;54767;53.800;15.956;2023-05-10T21:36:50;9.80;;;4.50;;
67986;SDS011;54767;53.800;15.956;2023-05-10T21:39:21;8.90;;;4.30;;
67986;SDS011;54767;53.800;15.956;2023-05-10T21:41:50;7.70;;;4.60;;
67986;SDS011;54767;53.800;15.956;2023-05-10T21:44:18;9.10;;;4.30;;
67986;SDS011;54767;53.800;15.956;2023-05-10T21:46:46;7.20;;;4.30;;
67986;SDS011;54767;53.800;15.956;2023-05-10T21:49:15;8.50;;;4.00;;
67986;SDS011;54767;53.800;15.956;2023-05-10T21:51:43;5.40;;;3.60;;
67986;SDS011;54767;53.800;15.956;2023-05-10T21:54:11;4.60;;;3.80;;
67986;SDS011;54767;53.800;15.956;2023-05-10T21:56:42;6.10;;;3.50;;
67986;SDS011;54767;53.800;15.956;2023-05-10T21:59:11;7.90;;;4.20;;
67986;SDS011;54767;53.800;15.956;2023-05-10T22:01:39;6.30;;;4.00;;
67986;SDS011;54767;53.800;15.956;2023-05-10T22:04:08;4.40;;;3.80;;
67986;SDS011;54767;53.800;15.956;2023-05-10T22:06:36;6.50;;;3.90;;
67986;SDS011;54767;53.800;15.956;2023-05-10T22:09:05;6.50;;;4.00;;
67986;SDS011;54767;53.800;15.956;2023-05-10T22:11:33;6.40;;;3.60;;
67986;SDS011;54767;53.800;15.956;2023-05-10T22:14:02;5.50;;;3.60;;
67986;SDS011;54767;53.800;15.956;2023-05-10T22:16:30;8.80;;;4.00;;
67986;SDS011;54767;53.800;15.956;2023-05-10T22:18:58;6.60;;;4.30;;
67986;SDS011;54767;53.800;15.956;2023-05-10T22:21:27;7.00;;;4.00;;
67986;SDS011;54767;53.800;15.956;2023-05-10T22:23:55;6.50;;;4.10;;
67986;SDS011;54767;53.800;15.956;2023-05-10T22:26:24;7.50;;;4.50;;
67986;SDS011;54767;53.800;15.956;2023-05-10T22:28:53;5.90;;;3.90;;
67986;SDS011;54767;53.800;15.956;2023-05-10T22:31:21;6.80;;;4.10;;
67986;SDS011;54767;53.800;15.956;2023-05-10T22:33:49;8.10;;;4.20;;
67986;SDS011;54767;53.800;15.956;2023-05-10T22:36:17;8.40;;;4.20;;
67986;SDS011;54767;53.800;15.956;2023-05-10T22:38:46;7.00;;;3.70;;
67986;SDS011;54767;53.800;15.956;2023-05-10T22:41:14;4.90;;;3.50;;
67986;SDS011;54767;53.800;15.956;2023-05-10T22:43:43;7.20;;;4.10;;
67986;SDS011;54767;53.800;15.956;2023-05-10T22:46:12;7.00;;;3.60;;
67986;SDS011;54767;53.800;15.956;2023-05-10T22:48:41;7.40;;;3.90;;
67986;SDS011;54767;53.800;15.956;2023-05-10T22:51:10;6.10;;;3.70;;
67986;SDS011;54767;53.800;15.956;2023-05-10T22:53:38;6.10;;;3.70;;
67986;SDS011;54767;53.800;15.956;2023-05-10T22:56:08;7.50;;;4.00;;
67986;SDS011;54767;53.800;15.956;2023-05-10T22:58:36;7.30;;;4.20;;
67986;SDS011;54767;53.800;15.956;2023-05-10T23:01:05;5.10;;;4.10;;
67986;SDS011;54767;53.800;15.956;2023-05-10T23:03:41;7.50;;;4.30;;
67986;SDS011;54767;53.800;15.956;2023-05-10T23:06:10;7.00;;;4.00;;
67986;SDS011;54767;53.800;15.956;2023-05-10T23:08:38;8.00;;;3.90;;
67986;SDS011;54767;53.800;15.956;2023-05-10T23:11:07;6.60;;;3.90;;
67986;SDS011;54767;53.800;15.956;2023-05-10T23:13:35;7.50;;;3.70;;
67986;SDS011;54767;53.800;15.956;2023-05-10T23:16:06;5.90;;;3.70;;
67986;SDS011;54767;53.800;15.956;2023-05-10T23:18:35;7.80;;;4.00;;
67986;SDS011;54767;53.800;15.956;2023-05-10T23:21:04;7.80;;;3.80;;
67986;SDS011;54767;53.800;15.956;2023-05-10T23:23:32;7.00;;;3.90;;
67986;SDS011;54767;53.800;15.956;2023-05-10T23:26:01;8.00;;;4.00;;
67986;SDS011;54767;53.800;15.956;2023-05-10T23:30:59;8.80;;;4.30;;
67986;SDS011;54767;53.800;15.956;2023-05-10T23:33:28;5.90;;;4.30;;
67986;SDS011;54767;53.800;15.956;2023-05-10T23:35:56;7.10;;;4.20;;
67986;SDS011;54767;53.800;15.956;2023-05-10T23:38:24;5.90;;;3.60;;
67986;SDS011;54767;53.800;15.956;2023-05-10T23:40:53;6.50;;;3.70;;
67986;SDS011;54767;53.800;15.956;2023-05-10T23:43:21;6.20;;;3.90;;
67986;SDS011;54767;53.800;15.956;2023-05-10T23:45:53;6.40;;;3.80;;
67986;SDS011;54767;53.800;15.956;2023-05-10T23:48:23;7.90;;;4.10;;
67986;SDS011;54767;53.800;15.956;2023-05-10T23:50:51;8.30;;;3.60;;
67986;SDS011;54767;53.800;15.956;2023-05-10T23:53:19;8.30;;;3.90;;
67986;SDS011;54767;53.800;15.956;2023-05-10T23:55:50;7.20;;;4.10;;
67986;SDS011;54767;53.800;15.956;2023-05-10T23:58:18;7.50;;;5.10;;
